Time;durP1;ratioP1;P1;durP2;ratioP2;P2;SDS_P1;SDS_P2;PMS_P1;PMS_P2;Temp;Humidity;BMP_temperature;BMP_pressure;BME280_temperature;BME280_humidity;BME280_pressure;Samples;Min_cycle;Max_cycle;Signal;HPM_P1;HPM_P2
2023/11/09 00:01:36;;;;;;;3.67;2.28;;;;;;;6.31;59.49;94224.09;4969300;28;20129;-74
2023/11/09 00:04:02;;;;;;;3.45;2.20;;;;;;;6.31;59.65;94221.47;4968471;28;20030;-74
2023/11/09 00:06:28;;;;;;;2.60;2.40;;;;;;;6.34;59.13;94217.50;4967581;28;20596;-74
2023/11/09 00:08:53;;;;;;;3.58;1.77;;;;;;;6.18;59.62;94213.38;4969407;28;20129;-75
2023/11/09 00:11:20;;;;;;;3.47;2.20;;;;;;;6.14;59.87;94196.47;4965999;28;20613;-74
2023/11/09 00:13:46;;;;;;;2.42;1.85;;;;;;;6.15;58.60;94208.63;4970742;28;20069;-75
2023/11/09 00:16:13;;;;;;;2.25;2.05;;;;;;;6.12;60.43;94225.00;4967266;28;20777;-75
2023/11/09 00:18:38;;;;;;;5.40;2.97;;;;;;;6.06;61.67;94244.63;4968823;28;20022;-75
2023/11/09 00:21:04;;;;;;;3.58;2.50;;;;;;;5.81;62.80;94233.13;4967429;28;20080;-76
2023/11/09 00:23:31;;;;;;;6.68;2.55;;;;;;;5.85;62.90;94230.75;4975725;28;20034;-75
2023/11/09 00:25:57;;;;;;;3.35;2.90;;;;;;;6.05;62.18;94238.53;4984152;28;20485;-75
2023/11/09 00:28:22;;;;;;;3.38;3.08;;;;;;;5.76;63.39;94241.09;4967729;28;20462;-75
2023/11/09 00:30:47;;;;;;;3.45;3.15;;;;;;;5.97;62.90;94247.81;4968405;28;20019;-75
2023/11/09 00:33:13;;;;;;;4.05;2.92;;;;;;;6.00;62.28;94234.09;4971080;28;20035;-75
2023/11/09 00:35:39;;;;;;;3.25;2.90;;;;;;;6.09;61.93;94246.69;4971907;28;20027;-75
2023/11/09 00:38:06;;;;;;;3.83;3.50;;;;;;;6.06;61.29;94226.13;4969006;28;20105;-75
2023/11/09 00:40:31;;;;;;;5.00;3.13;;;;;;;6.02;60.95;94221.38;4965342;28;20493;-74
2023/11/09 00:42:57;;;;;;;3.38;2.38;;;;;;;6.06;60.26;94226.13;4983673;28;20089;-75
2023/11/09 00:45:22;;;;;;;3.22;2.92;;;;;;;5.98;60.77;94241.47;4964281;28;20433;-75
2023/11/09 00:47:48;;;;;;;3.38;3.08;;;;;;;5.76;61.13;94233.16;4967336;28;20097;-75
2023/11/09 00:50:13;;;;;;;9.27;3.80;;;;;;;5.66;61.68;94227.94;4967509;28;20038;-75
2023/11/09 00:52:42;;;;;;;2.80;2.50;;;;;;;5.61;62.15;94235.88;4968955;28;20035;-75
2023/11/09 00:55:08;;;;;;;4.15;3.47;;;;;;;5.55;61.76;94234.31;4968112;28;20026;-74
2023/11/09 00:57:34;;;;;;;3.50;3.20;;;;;;;5.46;62.29;94239.38;4968241;28;20534;-75
2023/11/09 01:00:00;;;;;;;3.58;3.28;;;;;;;5.14;61.84;94183.56;4967795;28;20036;-75
2023/11/09 01:02:25;;;;;;;13.32;3.65;;;;;;;5.62;61.11;94241.94;4970246;28;20609;-75
2023/11/09 01:04:51;;;;;;;3.60;3.30;;;;;;;5.48;61.46;94257.59;4967532;28;20030;-74
2023/11/09 01:07:17;;;;;;;4.05;3.50;;;;;;;5.29;62.63;94253.94;4968797;28;20392;-75
2023/11/09 01:09:45;;;;;;;4.68;3.72;;;;;;;5.11;63.09;94235.00;4970233;28;20022;-75
2023/11/09 01:12:11;;;;;;;4.80;3.88;;;;;;;5.20;63.67;94245.00;4966951;28;20122;-75
2023/11/09 01:14:36;;;;;;;5.95;4.07;;;;;;;5.14;63.31;94231.81;4976593;28;20031;-75
2023/11/09 01:17:02;;;;;;;5.93;3.90;;;;;;;5.27;63.58;94256.06;4972421;28;20599;-74
2023/11/09 01:19:28;;;;;;;4.30;3.90;;;;;;;5.15;64.18;94248.44;4967127;28;20038;-75
2023/11/09 01:21:53;;;;;;;8.52;4.22;;;;;;;5.24;63.95;94257.38;4968120;28;20474;-74
2023/11/09 01:24:19;;;;;;;5.00;4.50;;;;;;;5.10;63.86;94245.81;4968653;28;20436;-75
2023/11/09 01:26:44;;;;;;;4.90;4.25;;;;;;;5.14;63.56;94250.28;4966120;28;20655;-76
2023/11/09 01:29:11;;;;;;;6.70;4.53;;;;;;;4.99;63.06;94239.78;4966005;28;20045;-74
2023/11/09 01:31:37;;;;;;;5.15;4.00;;;;;;;4.94;64.07;94242.41;4968070;28;20386;-74
2023/11/09 01:34:03;;;;;;;4.95;3.72;;;;;;;4.94;63.80;94252.97;4968231;28;20037;-75
2023/11/09 01:36:29;;;;;;;4.32;3.90;;;;;;;4.82;64.27;94239.28;4959811;28;20066;-75
2023/11/09 01:38:54;;;;;;;10.63;4.10;;;;;;;4.88;63.81;94238.25;4963824;28;20039;-74
2023/11/09 01:41:20;;;;;;;4.53;4.13;;;;;;;4.98;63.68;94243.50;4964997;28;20049;-74
2023/11/09 01:43:55;;;;;;;5.00;4.60;;;;;;;5.00;63.80;94243.19;4966073;28;20604;-75
2023/11/09 01:46:22;;;;;;;4.50;4.05;;;;;;;4.92;63.33;94212.13;4966073;28;20030;-74
2023/11/09 01:48:48;;;;;;;3.60;3.30;;;;;;;5.00;63.98;94251.91;4968204;28;20110;-75
2023/11/09 01:51:15;;;;;;;4.30;3.55;;;;;;;5.04;63.14;94239.75;4963392;28;20417;-76
2023/11/09 01:53:41;;;;;;;3.38;3.13;;;;;;;5.21;63.30;94268.47;4967916;28;20501;-75
2023/11/09 01:56:09;;;;;;;3.47;3.17;;;;;;;5.26;62.43;94255.28;4981842;28;20034;-75
2023/11/09 01:58:34;;;;;;;3.85;3.35;;;;;;;5.44;61.96;94264.44;4966504;28;20038;-74
2023/11/09 02:01:01;;;;;;;3.75;3.45;;;;;;;5.49;61.26;94248.59;4970646;28;20354;-74
2023/11/09 02:03:28;;;;;;;4.25;2.80;;;;;;;5.68;60.56;94270.66;4964957;28;20461;-75
2023/11/09 02:05:55;;;;;;;4.72;3.25;;;;;;;5.68;60.27;94275.94;4967951;28;20544;-75
2023/11/09 02:08:21;;;;;;;3.70;2.72;;;;;;;5.80;60.04;94278.28;4966629;28;20481;-74
2023/11/09 02:10:46;;;;;;;12.65;3.58;;;;;;;5.69;59.17;94279.38;4966335;28;20038;-74
2023/11/09 02:13:11;;;;;;;4.43;2.97;;;;;;;5.73;59.55;94281.19;4960475;28;20034;-76
2023/11/09 02:15:37;;;;;;;2.83;2.63;;;;;;;5.85;58.92;94279.03;4967056;28;20019;-74
2023/11/09 02:18:02;;;;;;;2.88;2.67;;;;;;;5.58;58.57;94258.31;4965328;28;20042;-74
2023/11/09 02:20:29;;;;;;;3.15;2.78;;;;;;;5.86;58.23;94280.63;4965245;28;20378;-75
2023/11/09 02:22:57;;;;;;;2.80;2.60;;;;;;;5.85;57.87;94281.69;4967113;28;20035;-76
2023/11/09 02:25:24;;;;;;;3.97;3.15;;;;;;;5.55;58.46;94263.34;4966372;28;20054;-75
2023/11/09 02:27:49;;;;;;;6.03;2.90;;;;;;;5.67;58.15;94287.59;4965884;28;20018;-75
2023/11/09 02:30:14;;;;;;;3.00;2.80;;;;;;;5.73;57.68;94289.13;4965533;28;20426;-75
2023/11/09 02:32:40;;;;;;;5.05;3.47;;;;;;;5.74;57.29;94266.94;4963677;28;20130;-75
2023/11/09 02:35:07;;;;;;;3.10;2.83;;;;;;;5.92;55.69;94281.41;4954087;28;20038;-74
2023/11/09 02:37:33;;;;;;;3.47;3.05;;;;;;;5.88;56.30;94278.50;4981663;28;20035;-75
2023/11/09 02:40:00;;;;;;;4.10;3.53;;;;;;;5.94;56.53;94290.59;4968454;28;20027;-76
2023/11/09 02:42:25;;;;;;;3.10;2.80;;;;;;;6.09;56.26;94305.59;4967167;28;20050;-75
2023/11/09 02:44:51;;;;;;;3.70;3.30;;;;;;;6.16;55.63;94305.31;4964898;28;20038;-74
2023/11/09 02:47:16;;;;;;;3.88;3.05;;;;;;;6.10;55.75;94306.38;4965815;28;20460;-74
2023/11/09 02:49:42;;;;;;;4.22;2.90;;;;;;;5.73;55.74;94265.38;4966905;28;20066;-75
2023/11/09 02:52:07;;;;;;;3.00;2.80;;;;;;;6.08;55.78;94305.84;4966019;28;20571;-74
2023/11/09 02:54:33;;;;;;;2.88;2.67;;;;;;;5.97;54.88;94292.69;4965053;28;20030;-75
2023/11/09 02:56:59;;;;;;;3.30;3.00;;;;;;;5.94;55.56;94290.59;4980659;28;20039;-74
2023/11/09 02:59:24;;;;;;;3.63;2.90;;;;;;;5.95;55.08;94300.13;4959112;28;20035;-76
2023/11/09 03:01:50;;;;;;;3.22;3.00;;;;;;;6.02;55.18;94311.16;4952548;28;20062;-74
2023/11/09 03:04:16;;;;;;;3.40;3.08;;;;;;;5.99;55.68;94305.63;4964923;28;20154;-75
2023/11/09 03:06:41;;;;;;;3.65;2.90;;;;;;;5.54;56.37;94293.41;4972965;28;20178;-74
2023/11/09 03:09:12;;;;;;;3.45;3.15;;;;;;;5.76;56.52;94306.28;4966413;28;20523;-74
2023/11/09 03:11:37;;;;;;;2.80;2.60;;;;;;;5.55;57.00;94273.91;4965996;28;20038;-75
2023/11/09 03:14:05;;;;;;;3.08;2.88;;;;;;;5.82;56.68;94315.75;4965515;28;20038;-75
2023/11/09 03:16:30;;;;;;;3.55;3.25;;;;;;;5.90;56.66;94323.91;4966290;28;20038;-74
2023/11/09 03:18:56;;;;;;;3.42;2.60;;;;;;;5.86;56.63;94328.16;4963616;28;20571;-75
2023/11/09 03:21:22;;;;;;;3.45;3.15;;;;;;;6.00;57.14;94315.94;4967415;28;20038;-75
2023/11/09 03:23:49;;;;;;;2.80;2.60;;;;;;;6.16;56.21;94321.16;4963177;28;20054;-75
2023/11/09 03:26:15;;;;;;;3.25;2.97;;;;;;;6.09;55.55;94310.06;4965232;28;20092;-75
2023/11/09 03:28:40;;;;;;;3.47;3.17;;;;;;;6.11;55.68;94307.97;4963429;28;20043;-74
2023/11/09 03:31:06;;;;;;;3.97;2.85;;;;;;;6.07;55.08;94288.44;4965533;28;20081;-74
2023/11/09 03:33:32;;;;;;;2.65;2.45;;;;;;;6.09;54.72;94312.72;4964405;28;20476;-74
2023/11/09 03:35:57;;;;;;;2.63;2.40;;;;;;;6.12;55.12;94307.66;4965432;28;20130;-74
2023/11/09 03:38:23;;;;;;;2.45;2.25;;;;;;;5.95;54.65;94302.75;4965350;28;22934;-74
2023/11/09 03:40:48;;;;;;;3.17;2.88;;;;;;;5.65;55.65;94302.09;4965915;28;20042;-75
2023/11/09 03:43:15;;;;;;;3.20;2.83;;;;;;;5.69;56.07;94325.03;4980057;28;20541;-76
2023/11/09 03:45:41;;;;;;;3.20;2.90;;;;;;;5.67;55.22;94294.72;4958865;28;20030;-75
2023/11/09 03:48:07;;;;;;;3.88;3.50;;;;;;;5.64;56.12;94309.22;4966489;28;20034;-75
2023/11/09 03:50:32;;;;;;;4.85;3.60;;;;;;;5.80;56.00;94313.38;4965713;28;20038;-75
2023/11/09 03:52:58;;;;;;;4.90;3.30;;;;;;;5.92;56.17;94315.72;4965013;28;20046;-75
2023/11/09 03:55:23;;;;;;;4.68;3.15;;;;;;;6.11;55.59;94316.69;4966038;28;20026;-75
2023/11/09 03:57:48;;;;;;;4.22;3.83;;;;;;;6.13;55.27;94327.75;4959448;28;20757;-74
2023/11/09 04:00:14;;;;;;;3.70;3.05;;;;;;;6.09;55.91;94310.06;4967008;28;20027;-74
2023/11/09 04:02:42;;;;;;;3.13;2.58;;;;;;;6.09;55.94;94333.84;4964937;28;20619;-76
2023/11/09 04:05:09;;;;;;;4.22;3.15;;;;;;;6.15;56.07;94333.56;4981228;28;20031;-75
2023/11/09 04:07:35;;;;;;;9.48;4.45;;;;;;;5.87;56.07;94313.88;4966797;28;20508;-75
2023/11/09 04:10:01;;;;;;;9.65;4.53;;;;;;;6.09;55.99;94325.91;4967585;28;20027;-75
2023/11/09 04:12:27;;;;;;;3.47;3.05;;;;;;;5.98;55.76;94310.13;4969495;28;20034;-74
2023/11/09 04:14:52;;;;;;;6.47;3.70;;;;;;;6.10;55.83;94327.50;4968576;28;20556;-74
2023/11/09 04:17:18;;;;;;;4.45;3.30;;;;;;;6.00;55.79;94334.41;4967656;28;20050;-76
2023/11/09 04:19:44;;;;;;;6.60;3.88;;;;;;;6.05;56.40;94335.44;4968729;28;20042;-75
2023/11/09 04:22:10;;;;;;;5.93;3.80;;;;;;;6.05;55.97;94335.44;4968406;28;20046;-74
2023/11/09 04:24:36;;;;;;;9.60;5.15;;;;;;;6.02;55.59;94336.00;4968633;28;20133;-74
2023/11/09 04:27:01;;;;;;;9.05;4.80;;;;;;;5.96;55.31;94325.47;4967123;28;20121;-74
2023/11/09 04:29:27;;;;;;;11.55;6.18;;;;;;;6.07;55.31;94322.78;4967898;28;20043;-74
2023/11/09 04:31:53;;;;;;;7.85;4.13;;;;;;;6.10;55.30;94332.78;4969057;28;20390;-75
2023/11/09 04:34:19;;;;;;;2.90;2.42;;;;;;;5.99;55.07;94329.41;4969157;28;20097;-74
2023/11/09 04:36:49;;;;;;;4.43;3.22;;;;;;;5.90;55.37;94331.81;4962133;28;20114;-76
2023/11/09 04:39:27;;;;;;;3.28;2.85;;;;;;;5.91;55.94;94340.53;4970174;28;20030;-76
2023/11/09 04:41:54;;;;;;;2.60;2.22;;;;;;;5.81;55.22;94338.72;4966572;28;20027;-74
2023/11/09 04:44:19;;;;;;;3.30;2.88;;;;;;;5.63;55.69;94339.28;4969690;28;20043;-74
2023/11/09 04:46:45;;;;;;;3.25;2.20;;;;;;;5.53;55.79;94318.22;4966812;28;20538;-76
2023/11/09 04:49:11;;;;;;;2.70;2.50;;;;;;;5.52;56.14;94328.00;4970489;28;20057;-75
2023/11/09 04:51:37;;;;;;;3.83;3.15;;;;;;;5.41;56.92;94328.28;4966678;28;20133;-74
2023/11/09 04:54:16;;;;;;;4.20;2.17;;;;;;;5.42;56.36;94343.06;4967604;28;20043;-74
2023/11/09 04:56:53;;;;;;;3.75;2.47;;;;;;;5.32;56.74;94348.38;4966253;28;20035;-76
2023/11/09 05:07:30;;;;;;;2.63;2.43;;;;;;;5.26;56.82;94344.16;4968657;28;20096;-75
2023/11/09 05:10:00;;;;;;;2.83;2.03;;;;;;;5.23;56.08;94349.97;4970792;28;20185;-77
2023/11/09 05:12:26;;;;;;;2.67;2.47;;;;;;;5.16;56.17;94349.44;4969045;28;20386;-76
2023/11/09 05:14:52;;;;;;;4.43;2.25;;;;;;;5.07;56.40;94346.53;4971206;28;20631;-76
2023/11/09 05:17:19;;;;;;;2.15;1.95;;;;;;;5.17;56.25;94351.81;4968349;28;20149;-76
2023/11/09 05:19:45;;;;;;;3.22;2.53;;;;;;;5.25;56.54;94353.09;4958774;28;20412;-76
2023/11/09 05:22:11;;;;;;;2.92;1.80;;;;;;;5.19;56.39;94354.19;4968187;28;20118;-77
2023/11/09 05:24:38;;;;;;;2.45;2.25;;;;;;;5.18;55.97;94361.31;4969691;28;20138;-77
2023/11/09 05:27:04;;;;;;;2.42;2.22;;;;;;;5.13;55.97;94363.94;4970568;28;20397;-77
2023/11/09 05:29:30;;;;;;;2.50;2.10;;;;;;;5.18;57.32;94363.16;4969932;28;20034;-76
2023/11/09 05:31:55;;;;;;;2.63;2.13;;;;;;;5.12;57.29;94371.06;4969302;28;20045;-76
2023/11/09 05:34:21;;;;;;;3.63;3.33;;;;;;;5.13;57.21;94367.38;4969804;28;20030;-76
2023/11/09 05:36:46;;;;;;;4.25;3.67;;;;;;;5.08;57.27;94364.75;4967927;28;20022;-75
2023/11/09 05:39:14;;;;;;;4.95;4.45;;;;;;;5.11;57.71;94374.75;4962231;28;20081;-75
2023/11/09 05:41:40;;;;;;;3.95;3.63;;;;;;;5.06;57.24;94351.03;4957976;28;20760;-75
2023/11/09 05:44:06;;;;;;;5.15;3.10;;;;;;;5.15;57.67;94375.00;4957508;28;20049;-77
2023/11/09 05:46:32;;;;;;;4.18;3.63;;;;;;;5.23;57.62;94366.59;4956942;28;20034;-75
2023/11/09 05:48:58;;;;;;;4.72;3.60;;;;;;;5.28;57.31;94358.66;4957200;28;20113;-75
2023/11/09 05:51:24;;;;;;;6.70;4.63;;;;;;;5.28;57.64;94363.16;4957132;28;20619;-75
2023/11/09 05:53:53;;;;;;;5.30;3.97;;;;;;;5.39;57.60;94375.25;4957984;28;20149;-75
2023/11/09 05:56:23;;;;;;;5.35;4.15;;;;;;;5.42;58.02;94380.00;4956596;28;20042;-75
2023/11/09 05:58:53;;;;;;;4.38;3.88;;;;;;;5.45;58.13;94371.53;4958367;28;20479;-76
2023/11/09 06:01:18;;;;;;;5.93;4.60;;;;;;;5.40;58.04;94361.78;4959983;28;20441;-75
2023/11/09 06:03:43;;;;;;;5.38;4.93;;;;;;;5.58;57.73;94370.97;4963148;28;20065;-74
2023/11/09 06:06:09;;;;;;;4.35;3.95;;;;;;;5.77;57.82;94382.56;4978929;28;20034;-74
2023/11/09 06:08:35;;;;;;;5.10;4.38;;;;;;;5.41;57.58;94379.22;4967669;28;20038;-75
2023/11/09 06:11:02;;;;;;;4.97;4.13;;;;;;;5.62;58.21;94389.72;4966621;28;20091;-75
2023/11/09 06:13:28;;;;;;;5.90;5.15;;;;;;;5.77;58.10;94387.84;4963488;28;20057;-75
2023/11/09 06:15:53;;;;;;;6.50;5.13;;;;;;;5.84;57.88;94388.31;4967460;28;20110;-74
2023/11/09 06:18:19;;;;;;;6.03;5.00;;;;;;;5.92;57.92;94390.41;4965343;28;20464;-75
2023/11/09 06:20:47;;;;;;;9.32;5.60;;;;;;;5.96;58.05;94391.47;4966205;28;20041;-74
2023/11/09 06:23:13;;;;;;;7.20;6.00;;;;;;;5.91;58.02;94388.84;4965269;28;20560;-75
2023/11/09 06:25:40;;;;;;;7.07;6.38;;;;;;;5.76;58.19;94404.72;4981365;28;20058;-75
2023/11/09 06:28:05;;;;;;;9.68;6.55;;;;;;;5.88;57.68;94383.28;4968411;28;20412;-75
2023/11/09 06:30:31;;;;;;;8.13;6.75;;;;;;;6.05;57.00;94390.91;4963824;28;20213;-75
2023/11/09 06:32:56;;;;;;;10.95;6.90;;;;;;;6.22;57.46;94401.94;4965622;28;20556;-76
2023/11/09 06:35:22;;;;;;;8.18;6.82;;;;;;;6.19;57.86;94391.94;4964966;28;20042;-74
2023/11/09 06:37:47;;;;;;;27.20;11.90;;;;;;;6.15;57.70;94372.38;4965712;28;20046;-75
2023/11/09 06:40:16;;;;;;;20.27;9.85;;;;;;;6.33;57.35;94403.47;4965500;28;20689;-75
2023/11/09 06:42:49;;;;;;;11.95;8.73;;;;;;;5.90;58.07;94402.31;4969922;28;20030;-74
2023/11/09 06:45:16;;;;;;;9.52;8.18;;;;;;;5.74;59.20;94404.19;4965408;28;20405;-74
2023/11/09 06:47:41;;;;;;;10.57;8.52;;;;;;;5.89;58.93;94385.66;4965479;28;20039;-74
2023/11/09 06:50:16;;;;;;;13.38;9.77;;;;;;;6.13;58.63;94401.69;4969611;28;20425;-75
2023/11/09 06:52:42;;;;;;;12.75;9.20;;;;;;;6.17;59.20;94408.03;4966921;28;20038;-74
2023/11/09 06:55:11;;;;;;;12.32;8.70;;;;;;;6.35;58.31;94409.28;4966378;28;20072;-75
2023/11/09 06:57:39;;;;;;;11.00;9.50;;;;;;;6.37;58.27;94417.72;4965783;28;20417;-75
2023/11/09 07:00:07;;;;;;;11.50;10.10;;;;;;;6.26;58.44;94380.00;4964206;28;20100;-76
2023/11/09 07:02:33;;;;;;;13.25;10.20;;;;;;;6.54;58.42;94406.81;4956361;28;20761;-75
2023/11/09 07:04:59;;;;;;;15.75;10.80;;;;;;;6.38;58.55;94409.53;4959521;28;20520;-75
2023/11/09 07:07:26;;;;;;;20.02;11.40;;;;;;;6.56;58.42;94421.31;4955691;28;20080;-76
2023/11/09 07:09:51;;;;;;;14.05;10.70;;;;;;;6.52;58.30;94401.78;4958834;28;20030;-74
2023/11/09 07:12:19;;;;;;;15.65;10.07;;;;;;;6.44;58.28;94375.94;4962207;28;20548;-74
2023/11/09 07:14:45;;;;;;;18.25;12.07;;;;;;;5.94;59.79;94413.91;4954296;28;20577;-73
2023/11/09 07:17:11;;;;;;;15.23;12.10;;;;;;;6.17;60.40;94415.97;4966627;28;20476;-74
2023/11/09 07:19:37;;;;;;;16.00;12.23;;;;;;;5.77;60.32;94377.28;4965207;28;20136;-75
2023/11/09 07:22:08;;;;;;;16.33;11.50;;;;;;;6.05;59.95;94402.25;4963710;28;20033;-75
2023/11/09 07:24:39;;;;;;;16.95;11.75;;;;;;;6.15;60.22;94415.44;4962405;28;20254;-75
2023/11/09 07:27:08;;;;;;;14.82;12.07;;;;;;;6.00;60.69;94432.13;4963471;28;20292;-75
2023/11/09 07:29:35;;;;;;;19.95;12.98;;;;;;;5.64;63.83;94433.25;4963943;28;20053;-74
2023/11/09 07:32:01;;;;;;;20.73;12.43;;;;;;;5.71;63.43;94428.50;4968424;28;20565;-75
2023/11/09 07:34:27;;;;;;;19.90;13.38;;;;;;;5.80;62.29;94415.53;4963373;28;20048;-74
2023/11/09 07:36:53;;;;;;;18.17;13.13;;;;;;;5.62;62.22;94416.09;4967029;28;20615;-74
2023/11/09 07:39:19;;;;;;;16.98;11.57;;;;;;;6.02;62.41;94409.94;4964960;28;20042;-75
2023/11/09 07:41:44;;;;;;;19.67;13.30;;;;;;;5.78;62.38;94417.63;4964071;28;20167;-75
2023/11/09 07:44:10;;;;;;;20.15;12.75;;;;;;;5.58;62.60;94395.50;4969498;28;20045;-74
2023/11/09 07:46:37;;;;;;;18.20;13.82;;;;;;;5.67;62.09;94397.63;4964797;28;20535;-74
2023/11/09 07:49:03;;;;;;;15.60;13.02;;;;;;;6.09;62.35;94407.78;4967627;28;20454;-74
2023/11/09 07:51:29;;;;;;;15.98;13.15;;;;;;;6.30;61.13;94401.38;4969234;28;20837;-76
2023/11/09 07:53:55;;;;;;;19.63;13.73;;;;;;;5.95;62.07;94383.81;4975272;28;20097;-76
2023/11/09 07:56:21;;;;;;;24.92;16.38;;;;;;;6.32;60.67;94412.47;4964899;28;20523;-75
2023/11/09 07:58:46;;;;;;;21.40;15.55;;;;;;;6.14;61.84;94399.84;4968934;28;20039;-76
2023/11/09 08:01:12;;;;;;;18.13;14.18;;;;;;;6.13;61.93;94404.31;4972533;28;20031;-74
2023/11/09 08:03:39;;;;;;;20.40;15.63;;;;;;;5.94;63.78;94388.28;4974438;28;20030;-76
2023/11/09 08:06:07;;;;;;;16.23;12.48;;;;;;;6.14;62.09;94400.63;4972463;28;20050;-75
2023/11/09 08:08:34;;;;;;;18.75;12.32;;;;;;;6.42;61.71;94417.69;4972657;28;20043;-77
2023/11/09 08:10:59;;;;;;;17.98;11.43;;;;;;;6.38;62.00;94409.53;4970897;28;20580;-75
2023/11/09 08:13:26;;;;;;;15.07;11.13;;;;;;;5.92;63.54;94413.41;4969840;28;20048;-75
2023/11/09 08:15:52;;;;;;;14.75;11.75;;;;;;;6.08;64.45;94408.84;4967129;28;20026;-75
2023/11/09 08:18:17;;;;;;;16.60;10.73;;;;;;;5.96;63.86;94399.38;4967604;28;20031;-73
2023/11/09 08:20:43;;;;;;;14.43;10.73;;;;;;;6.08;62.26;94414.13;4963867;28;20560;-75
2023/11/09 08:23:08;;;;;;;15.40;10.95;;;;;;;6.27;61.95;94386.84;4969370;28;20543;-74
2023/11/09 08:25:33;;;;;;;15.07;10.73;;;;;;;6.55;61.67;94409.19;4965257;28;21105;-75
2023/11/09 08:27:59;;;;;;;12.40;9.70;;;;;;;6.51;61.10;94418.69;4970083;28;20022;-75
2023/11/09 08:30:27;;;;;;;17.17;9.30;;;;;;;6.74;59.67;94410.13;4966964;28;20041;-77
2023/11/09 08:32:55;;;;;;;14.48;10.77;;;;;;;7.12;59.15;94423.63;4970038;28;20094;-75
2023/11/09 08:35:24;;;;;;;12.25;9.48;;;;;;;7.11;59.17;94427.31;4963898;28;20057;-74
2023/11/09 08:37:52;;;;;;;12.60;10.13;;;;;;;7.26;59.01;94419.28;4967719;28;20157;-74
2023/11/09 08:40:17;;;;;;;11.77;8.90;;;;;;;7.28;57.83;94417.16;4966991;28;20041;-74
2023/11/09 08:42:48;;;;;;;10.63;8.82;;;;;;;7.46;58.32;94428.91;4966625;28;20517;-75
2023/11/09 08:45:17;;;;;;;15.32;8.70;;;;;;;7.23;58.11;94372.22;4965171;28;20129;-75
2023/11/09 08:47:45;;;;;;;9.73;8.18;;;;;;;7.57;57.75;94425.09;4967549;28;20038;-74
2023/11/09 08:50:11;;;;;;;9.35;8.23;;;;;;;7.79;57.55;94422.00;4966755;28;20045;-75
2023/11/09 08:52:40;;;;;;;9.80;7.93;;;;;;;7.85;56.34;94415.56;4968223;28;20508;-75
2023/11/09 08:55:08;;;;;;;9.25;7.80;;;;;;;7.88;56.43;94409.72;4967770;28;20037;-75
2023/11/09 08:57:33;;;;;;;13.18;8.63;;;;;;;8.03;55.67;94417.50;4966368;28;20038;-74
2023/11/09 09:00:01;;;;;;;12.90;9.35;;;;;;;8.10;55.94;94404.72;4967318;28;20053;-74
2023/11/09 09:02:31;;;;;;;13.82;9.43;;;;;;;8.25;55.44;94404.53;4967287;28;20034;-74
2023/11/09 09:04:57;;;;;;;11.50;7.97;;;;;;;8.07;55.84;94406.06;4965478;28;20310;-75
2023/11/09 09:07:22;;;;;;;12.77;8.82;;;;;;;7.98;56.82;94404.31;4951713;28;20063;-75
2023/11/09 09:09:48;;;;;;;10.77;8.82;;;;;;;8.06;55.70;94401.06;4969912;28;20022;-75
2023/11/09 09:12:18;;;;;;;10.13;8.05;;;;;;;8.19;56.03;94384.47;4965557;28;20035;-74
2023/11/09 09:14:46;;;;;;;11.15;8.35;;;;;;;8.32;56.38;94390.91;4965616;28;20113;-75
2023/11/09 09:17:12;;;;;;;12.90;7.90;;;;;;;8.36;56.42;94395.41;4968507;28;20027;-75
2023/11/09 09:19:38;;;;;;;8.57;7.28;;;;;;;8.34;55.41;94381.63;4968173;28;20496;-74
2023/11/09 09:22:04;;;;;;;11.90;7.72;;;;;;;8.41;55.80;94397.94;4966051;28;20593;-75
2023/11/09 09:24:30;;;;;;;9.55;8.07;;;;;;;8.35;55.71;94383.22;4972388;28;20058;-75
2023/11/09 09:26:55;;;;;;;9.05;6.53;;;;;;;8.59;55.79;94378.66;4966365;28;20034;-75
2023/11/09 09:29:24;;;;;;;13.50;7.10;;;;;;;8.53;54.77;94389.59;4967294;28;20062;-75
2023/11/09 09:31:50;;;;;;;10.05;7.05;;;;;;;8.43;54.60;94385.22;4965021;28;20034;-74
2023/11/09 09:34:25;;;;;;;10.52;6.82;;;;;;;8.49;55.04;94393.88;4967969;28;20045;-74
2023/11/09 09:36:51;;;;;;;7.65;6.85;;;;;;;8.45;55.22;94372.47;4981035;28;20074;-74
2023/11/09 09:39:17;;;;;;;7.82;6.63;;;;;;;8.57;54.87;94396.69;4968526;28;20117;-75
2023/11/09 09:41:50;;;;;;;8.10;7.28;;;;;;;8.66;55.38;94393.41;4965311;28;20572;-75
2023/11/09 09:44:17;;;;;;;9.07;6.88;;;;;;;8.62;54.56;94355.25;4968658;28;20487;-75
2023/11/09 09:46:44;;;;;;;10.73;6.13;;;;;;;8.91;55.02;94371.81;4966141;28;20034;-75
2023/11/09 09:49:10;;;;;;;9.98;6.60;;;;;;;9.10;54.63;94383.19;4968573;28;20118;-74
2023/11/09 09:51:37;;;;;;;10.63;6.88;;;;;;;8.77;54.79;94381.56;4965027;28;20018;-74
2023/11/09 09:54:08;;;;;;;8.20;6.85;;;;;;;8.64;54.36;94361.09;4980852;28;20126;-75
2023/11/09 09:56:40;;;;;;;10.85;6.50;;;;;;;8.80;53.88;94370.41;4967746;28;20034;-75
2023/11/09 09:59:09;;;;;;;10.35;6.80;;;;;;;8.64;55.19;94369.81;4970423;28;20096;-75
2023/11/09 10:01:40;;;;;;;13.32;7.50;;;;;;;8.81;54.21;94366.66;4967430;28;20061;-75
2023/11/09 10:04:06;;;;;;;11.93;7.00;;;;;;;8.95;53.34;94364.88;4965995;28;20033;-76
2023/11/09 10:06:32;;;;;;;10.77;7.50;;;;;;;9.12;53.14;94359.84;4966202;28;20063;-75
2023/11/09 10:08:58;;;;;;;10.38;7.32;;;;;;;8.94;53.27;94342.06;4965240;28;20118;-75
2023/11/09 10:11:24;;;;;;;12.85;7.60;;;;;;;8.79;52.83;94323.72;4966844;28;20536;-75
2023/11/09 10:13:50;;;;;;;9.63;7.47;;;;;;;9.17;52.81;94361.63;4968384;28;20050;-75
2023/11/09 10:16:16;;;;;;;11.50;7.07;;;;;;;9.04;53.64;94336.59;4966783;28;20033;-74
2023/11/09 10:18:41;;;;;;;11.68;7.10;;;;;;;9.30;53.75;94360.84;4966311;28;20034;-75
2023/11/09 10:21:12;;;;;;;8.30;6.28;;;;;;;9.48;53.62;94352.06;4965887;28;20042;-75
2023/11/09 10:23:39;;;;;;;13.00;7.55;;;;;;;9.45;53.28;94356.09;4967083;28;20528;-76
2023/11/09 10:26:13;;;;;;;10.43;7.75;;;;;;;9.59;52.81;94350.00;4967952;28;20046;-74
2023/11/09 10:28:39;;;;;;;8.55;7.28;;;;;;;9.67;51.97;94354.66;4964128;28;20058;-75
2023/11/09 10:31:05;;;;;;;10.18;7.00;;;;;;;9.63;51.59;94343.03;4966324;28;20026;-75
2023/11/09 10:33:32;;;;;;;7.03;6.32;;;;;;;9.75;52.01;94338.81;4965476;28;20030;-76
2023/11/09 10:35:58;;;;;;;9.40;7.15;;;;;;;9.66;51.79;94334.47;4967223;28;20043;-76
2023/11/09 10:38:25;;;;;;;9.15;7.18;;;;;;;9.59;52.36;94316.25;4969593;28;20046;-75
2023/11/09 10:40:59;;;;;;;10.30;7.07;;;;;;;9.76;52.18;94331.63;4965150;28;20177;-75
2023/11/09 10:43:25;;;;;;;9.98;7.00;;;;;;;9.69;52.40;94320.59;4962344;28;20030;-75
2023/11/09 10:45:52;;;;;;;9.45;6.90;;;;;;;9.82;52.55;94314.53;4962367;28;20026;-76
2023/11/09 10:48:18;;;;;;;8.70;7.20;;;;;;;10.00;51.27;94326.91;4966461;28;20050;-75
2023/11/09 10:50:46;;;;;;;9.60;6.82;;;;;;;10.16;51.08;94320.22;4961834;28;20544;-75
2023/11/09 10:53:15;;;;;;;7.78;6.70;;;;;;;10.20;50.75;94331.03;4953227;28;20113;-75
2023/11/09 10:55:43;;;;;;;10.27;7.43;;;;;;;10.09;50.41;94324.34;4966555;28;20444;-75
2023/11/09 10:58:12;;;;;;;8.50;6.68;;;;;;;10.27;50.89;94321.53;4964732;28;20140;-75
2023/11/09 11:00:42;;;;;;;8.77;6.68;;;;;;;10.00;51.28;94303.00;4966475;28;20029;-76
2023/11/09 11:03:25;;;;;;;10.75;6.97;;;;;;;10.08;51.40;94310.25;4963888;28;20065;-76
2023/11/09 11:05:54;;;;;;;11.15;7.30;;;;;;;10.33;51.02;94316.91;4963204;28;20138;-75
2023/11/09 11:08:22;;;;;;;11.02;7.13;;;;;;;10.29;50.53;94300.78;4961274;28;20134;-76
2023/11/09 11:10:51;;;;;;;8.93;6.15;;;;;;;10.21;50.22;94312.13;4966186;28;20033;-76
2023/11/09 11:13:18;;;;;;;11.40;7.13;;;;;;;9.92;49.89;94292.28;4965478;28;20381;-76
2023/11/09 11:16:03;;;;;;;9.00;6.40;;;;;;;10.30;50.66;94315.66;4964830;28;20062;-76
2023/11/09 11:18:36;;;;;;;10.25;7.45;;;;;;;10.41;50.13;94315.47;4962940;28;20039;-76
2023/11/09 11:21:30;;;;;;;10.30;6.80;;;;;;;10.49;49.06;94318.19;4970188;28;20208;-76
2023/11/09 11:24:17;;;;;;;9.48;6.85;;;;;;;10.38;49.22;94310.72;4967893;28;20047;-76
2023/11/09 11:27:10;;;;;;;10.35;6.95;;;;;;;10.62;49.04;94317.34;4969663;28;20038;-76
2023/11/09 11:29:37;;;;;;;11.73;6.95;;;;;;;10.44;48.39;94293.59;4970841;28;20066;-75
2023/11/09 11:32:04;;;;;;;12.20;6.78;;;;;;;10.45;48.36;94271.22;4968632;28;20584;-76
2023/11/09 11:34:55;;;;;;;10.65;6.72;;;;;;;10.46;48.43;94302.06;4968943;28;20038;-76
2023/11/09 11:37:31;;;;;;;13.10;6.70;;;;;;;10.49;48.53;94296.91;4969899;28;20031;-76
2023/11/09 11:39:59;;;;;;;8.80;6.90;;;;;;;10.46;48.91;94291.41;4970279;28;20025;-75
2023/11/09 11:42:27;;;;;;;8.48;5.78;;;;;;;10.65;48.07;94295.50;4970182;28;20037;-76
2023/11/09 11:44:59;;;;;;;8.25;6.32;;;;;;;10.72;47.20;94297.72;4968440;28;20470;-76